Mys Shmidta, Russia
Current Conditions -  °F | °C
As of 9:30 AM on Friday 28 Nov 2014 (Local Time) from UHMA Reporting Station
Overcast Overcast  
Wind Chill: 23°   Ceiling: 1100
Heat Index: 36°   Visibility: 6mi
Dew Point: 34°   Wind: 27mph
Humidity: 93%   Direction: 90°E
Pressure: 29.59"   Gusts: 34mph
Location:  68.93°N, 179.5°W
Report Text: UHMA 272130Z 09012G15MPS 9999 BKN011 OVC080 02/01 Q1002 NOSIGRMK QFE748/0997 MT OBSC 88790237
Loading
Personal Weather Stations






























Interactive Weather Map New forecast layout! Learn more

10-Day Weather Forecast

Advertisements
Track Severe Weather on mobile